createdAt,value
2018-08-09T00:01:29.858Z,47.36
2018-08-09T00:03:58.918Z,48.45
2018-08-09T00:06:27.929Z,47.85
2018-08-09T00:08:57.060Z,48.16
2018-08-09T00:11:26.254Z,48.61
2018-08-09T00:13:55.255Z,46.88
2018-08-09T00:16:24.249Z,46.54
2018-08-09T00:18:53.305Z,46.71
2018-08-09T00:21:22.322Z,47.38
2018-08-09T00:23:51.386Z,49.10
2018-08-09T00:26:20.300Z,49.08
2018-08-09T00:28:49.294Z,49.26
2018-08-09T00:31:18.291Z,49.08
2018-08-09T00:33:47.279Z,49.65
2018-08-09T00:36:16.240Z,50.09
2018-08-09T00:38:45.222Z,49.09
2018-08-09T00:41:14.200Z,49.70
2018-08-09T00:43:43.244Z,49.94
2018-08-09T00:46:12.209Z,50.70
2018-08-09T00:48:41.288Z,50.15
2018-08-09T00:51:11.216Z,50.62
2018-08-09T00:53:40.359Z,50.26
2018-08-09T00:56:09.329Z,50.41
2018-08-09T00:58:38.281Z,50.74
2018-08-09T01:01:07.473Z,49.15
2018-08-09T01:03:36.539Z,48.70
2018-08-09T01:06:05.443Z,49.38
2018-08-09T01:08:34.550Z,48.78
2018-08-09T01:11:03.601Z,48.29
2018-08-09T01:13:32.601Z,49.27
2018-08-09T01:16:01.601Z,49.49
2018-08-09T01:18:30.850Z,48.65
2018-08-09T01:20:59.826Z,48.15
2018-08-09T01:23:28.821Z,48.34
2018-08-09T01:26:00.694Z,48.10
2018-08-09T01:28:29.730Z,48.15
2018-08-09T01:30:58.730Z,48.72
2018-08-09T01:33:27.822Z,48.05
2018-08-09T01:35:56.834Z,49.05
2018-08-09T01:38:25.967Z,48.88
2018-08-09T01:40:54.997Z,48.79
2018-08-09T01:43:35.055Z,48.24
2018-08-09T01:46:04.073Z,48.77
2018-08-09T01:48:33.193Z,48.78
2018-08-09T01:51:02.221Z,48.29
2018-08-09T01:53:31.323Z,48.79
2018-08-09T01:56:00.330Z,48.77
2018-08-09T01:58:29.335Z,48.90
2018-08-09T02:00:58.285Z,48.55
2018-08-09T02:03:27.309Z,49.54
2018-08-09T02:05:56.345Z,49.85
2018-08-09T02:08:25.474Z,48.85
2018-08-09T02:10:54.497Z,48.41
2018-08-09T02:13:23.579Z,49.20
2018-08-09T02:15:52.545Z,48.35
2018-08-09T02:18:21.634Z,48.65
2018-08-09T02:20:50.603Z,49.00
2018-08-09T02:23:19.760Z,49.82
2018-08-09T02:25:48.794Z,49.43
2018-08-09T02:28:18.104Z,50.65
2018-08-09T02:30:47.089Z,51.25
2018-08-09T02:33:16.402Z,50.95
2018-08-09T02:35:45.580Z,51.74
2018-08-09T02:38:14.686Z,52.29
2018-08-09T02:40:43.669Z,52.29
2018-08-09T02:43:12.817Z,51.68
2018-08-09T02:45:41.772Z,51.68
2018-08-09T02:48:10.786Z,52.19
2018-08-09T02:50:39.843Z,51.19
2018-08-09T02:53:08.872Z,51.78
2018-08-09T02:55:37.977Z,51.76
2018-08-09T02:58:07.090Z,51.49
2018-08-09T03:00:36.117Z,52.62
2018-08-09T03:03:05.057Z,51.08
2018-08-09T03:05:34.160Z,52.34
2018-08-09T03:08:03.159Z,52.42
2018-08-09T03:10:32.255Z,52.49
2018-08-09T03:13:01.182Z,51.33
2018-08-09T03:15:30.305Z,51.59
2018-08-09T03:17:59.313Z,51.43
2018-08-09T03:20:28.405Z,51.44
2018-08-09T03:22:57.364Z,50.97
2018-08-09T03:25:26.476Z,51.74
2018-08-09T03:27:55.462Z,52.47
2018-08-09T03:30:24.452Z,52.69
2018-08-09T03:32:53.649Z,53.43
2018-08-09T03:35:22.642Z,52.81
2018-08-09T03:37:51.626Z,53.46
2018-08-09T03:40:20.613Z,51.54
2018-08-09T03:42:49.574Z,52.17
2018-08-09T03:45:18.570Z,51.71
2018-08-09T03:47:47.537Z,51.26
2018-08-09T03:50:16.606Z,52.03
2018-08-09T03:52:45.564Z,51.95
2018-08-09T03:55:14.594Z,52.37
2018-08-09T03:57:43.562Z,51.63
2018-08-09T04:00:12.821Z,50.97
2018-08-09T04:02:41.858Z,50.63
2018-08-09T04:05:11.189Z,52.13
2018-08-09T04:07:40.762Z,54.15
2018-08-09T04:10:10.053Z,51.33
2018-08-09T04:12:39.175Z,52.45
2018-08-09T04:15:09.578Z,51.50
2018-08-09T04:17:38.636Z,50.80
2018-08-09T04:20:07.931Z,51.60
2018-08-09T04:22:36.947Z,51.93
2018-08-09T04:25:06.486Z,51.45
2018-08-09T04:27:35.462Z,51.43
2018-08-09T04:30:05.072Z,50.33
2018-08-09T04:32:34.094Z,50.70
2018-08-09T04:35:03.170Z,51.35
2018-08-09T04:37:32.310Z,51.58
2018-08-09T04:40:01.421Z,51.84
2018-08-09T04:42:30.544Z,52.64
2018-08-09T04:44:59.647Z,53.08
2018-08-09T04:47:28.646Z,52.01
2018-08-09T04:49:57.702Z,51.60
2018-08-09T04:52:26.673Z,50.21
2018-08-09T04:54:55.761Z,51.58
2018-08-09T04:57:24.832Z,51.34
2018-08-09T04:59:53.784Z,51.01
2018-08-09T05:02:22.841Z,52.05
2018-08-09T05:04:52.156Z,52.89
2018-08-09T05:07:21.174Z,52.75
2018-08-09T05:09:50.187Z,51.06
2018-08-09T05:12:19.202Z,51.70
2018-08-09T05:14:48.184Z,51.74
2018-08-09T05:17:17.253Z,51.32
2018-08-09T05:19:46.175Z,51.42
2018-08-09T05:22:15.227Z,52.41
2018-08-09T05:24:44.225Z,52.17
2018-08-09T05:27:13.254Z,52.70
2018-08-09T05:29:42.304Z,52.98
2018-08-09T05:32:11.825Z,52.21
2018-08-09T05:34:41.378Z,52.84
2018-08-09T05:37:10.447Z,52.47
2018-08-09T05:39:39.421Z,52.47
2018-08-09T05:42:08.430Z,52.13
2018-08-09T05:44:37.446Z,51.72
2018-08-09T05:47:06.414Z,52.72
2018-08-09T05:49:35.386Z,52.55
2018-08-09T05:52:04.477Z,52.84
2018-08-09T05:54:33.435Z,53.01
2018-08-09T05:57:02.462Z,52.41
2018-08-09T05:59:31.528Z,52.20
2018-08-09T06:02:00.564Z,52.86
2018-08-09T06:04:29.605Z,53.45
2018-08-09T06:06:58.641Z,53.11
2018-08-09T06:09:27.573Z,52.94
2018-08-09T06:11:56.930Z,52.55
2018-08-09T06:14:27.206Z,50.61
2018-08-09T06:16:56.201Z,50.28
2018-08-09T06:19:31.558Z,51.15
2018-08-09T06:22:00.700Z,51.00
2018-08-09T06:24:29.779Z,51.52
2018-08-09T06:26:58.863Z,49.83
2018-08-09T06:29:27.923Z,48.82
2018-08-09T06:31:57.350Z,50.45
2018-08-09T06:34:26.644Z,48.28
2018-08-09T06:36:55.753Z,50.12
2018-08-09T06:39:25.191Z,49.91
2018-08-09T06:41:54.432Z,50.99
2018-08-09T06:44:23.781Z,50.27
2018-08-09T06:46:53.562Z,51.96
2018-08-09T06:49:22.598Z,52.79
2018-08-09T06:51:51.669Z,52.35
2018-08-09T06:54:20.765Z,52.04
2018-08-09T06:56:49.908Z,52.17
2018-08-09T06:59:18.840Z,52.81
2018-08-09T07:01:48.651Z,51.73
2018-08-09T07:04:17.675Z,52.32
2018-08-09T07:06:46.836Z,51.07
2018-08-09T07:09:15.902Z,49.20
2018-08-09T07:11:44.930Z,47.83
2018-08-09T07:14:13.965Z,48.63
2018-08-09T07:16:43.271Z,49.44
2018-08-09T07:19:12.295Z,49.62
2018-08-09T07:21:41.318Z,49.78
2018-08-09T07:24:10.355Z,50.11
2018-08-09T07:26:39.487Z,48.96
2018-08-09T07:29:08.661Z,48.46
2018-08-09T07:31:37.693Z,48.05
2018-08-09T07:34:06.692Z,49.01
2018-08-09T07:36:36.971Z,49.87
2018-08-09T07:39:08.333Z,50.45
2018-08-09T07:41:38.250Z,48.39
2018-08-09T07:44:07.327Z,49.18
2018-08-09T07:46:36.384Z,48.73
2018-08-09T07:49:05.373Z,47.97
2018-08-09T07:51:34.397Z,46.81
2018-08-09T07:54:03.364Z,46.16
2018-08-09T07:56:32.423Z,45.01
2018-08-09T07:59:01.646Z,45.12
2018-08-09T08:01:30.645Z,45.81
2018-08-09T08:03:59.809Z,46.95
2018-08-09T08:06:29.222Z,45.15
2018-08-09T08:08:58.408Z,44.01
2018-08-09T08:11:28.794Z,43.93
2018-08-09T08:13:57.807Z,42.84
2018-08-09T08:16:26.819Z,42.64
2018-08-09T08:18:55.773Z,42.83
2018-08-09T08:21:25.055Z,42.58
2018-08-09T08:23:54.484Z,41.11
2018-08-09T08:26:23.530Z,41.12
2018-08-09T08:28:52.589Z,41.93
2018-08-09T08:31:21.756Z,41.24
2018-08-09T08:33:50.693Z,40.75
2018-08-09T08:36:19.858Z,40.67
2018-08-09T08:38:49.166Z,40.21
2018-08-09T08:41:18.267Z,40.28
2018-08-09T08:43:47.602Z,41.36
2018-08-09T08:46:16.780Z,41.20
2018-08-09T08:48:46.343Z,40.66
2018-08-09T08:51:15.369Z,40.48
2018-08-09T08:53:45.001Z,38.42
2018-08-09T08:56:13.948Z,38.04
2018-08-09T08:58:42.959Z,39.18
2018-08-09T09:01:12.048Z,36.69
2018-08-09T09:03:41.218Z,36.85
2018-08-09T09:06:10.492Z,35.70
2018-08-09T09:08:40.210Z,35.78
2018-08-09T09:11:09.175Z,34.90
2018-08-09T09:13:41.331Z,35.34
2018-08-09T09:16:10.418Z,35.90
2018-08-09T09:18:39.523Z,35.34
2018-08-09T09:21:08.769Z,34.23
2018-08-09T09:23:38.355Z,34.30
2018-08-09T09:26:07.461Z,34.89
2018-08-09T09:28:36.525Z,34.02
2018-08-09T09:31:08.998Z,31.75
2018-08-09T09:33:38.554Z,33.30
2018-08-09T09:36:07.960Z,33.95
2018-08-09T09:38:38.729Z,33.81
2018-08-09T09:41:08.040Z,34.54
2018-08-09T09:43:37.141Z,34.72
2018-08-09T09:46:06.147Z,34.18
2018-08-09T09:48:35.275Z,34.09
2018-08-09T09:51:04.477Z,33.20
2018-08-09T09:53:33.970Z,34.91
2018-08-09T09:56:03.098Z,34.35
2018-08-09T09:58:32.878Z,33.79
2018-08-09T10:01:06.934Z,33.11
2018-08-09T10:03:36.066Z,34.20
2018-08-09T10:06:05.213Z,33.79
2018-08-09T10:08:34.281Z,34.39
2018-08-09T10:11:03.466Z,34.19
2018-08-09T10:13:32.967Z,32.16
2018-08-09T10:16:02.012Z,33.13
2018-08-09T10:18:31.540Z,33.24
2018-08-09T10:21:00.743Z,33.03
2018-08-09T10:23:30.038Z,33.61
2018-08-09T10:25:59.078Z,32.93
2018-08-09T10:28:28.208Z,32.43
2018-08-09T10:30:57.160Z,31.19
2018-08-09T10:33:26.161Z,32.11
2018-08-09T10:35:55.221Z,31.35
2018-08-09T10:38:24.507Z,32.75
2018-08-09T10:40:53.492Z,32.62
2018-08-09T10:43:22.886Z,30.90
2018-08-09T10:45:51.923Z,30.61
2018-08-09T10:48:20.950Z,32.04
2018-08-09T10:50:49.900Z,30.49
2018-08-09T10:53:19.157Z,30.01
2018-08-09T10:55:48.766Z,30.36
2018-08-09T10:58:17.861Z,30.45
2018-08-09T11:00:46.817Z,30.80
2018-08-09T11:03:15.843Z,30.94
2018-08-09T11:05:44.797Z,32.58
2018-08-09T11:08:14.029Z,31.70
2018-08-09T11:10:43.026Z,31.71
2018-08-09T11:13:12.101Z,31.84
2018-08-09T11:15:41.153Z,32.62
2018-08-09T11:18:10.235Z,32.06
2018-08-09T11:20:39.477Z,30.20
2018-08-09T11:23:08.662Z,28.59
2018-08-09T11:25:37.758Z,31.10
2018-08-09T11:28:06.915Z,31.29
2018-08-09T11:30:35.979Z,30.77
2018-08-09T11:33:10.386Z,30.59
2018-08-09T11:35:39.486Z,28.37
2018-08-09T11:38:08.500Z,28.10
2018-08-09T11:40:37.495Z,30.59
2018-08-09T11:43:06.870Z,31.34
2018-08-09T11:45:35.868Z,30.90
2018-08-09T11:48:04.917Z,31.04
2018-08-09T11:50:34.012Z,30.72
2018-08-09T11:53:03.149Z,32.63
2018-08-09T11:55:32.533Z,31.28
2018-08-09T11:58:01.618Z,31.96
2018-08-09T12:00:30.649Z,33.19
2018-08-09T12:02:59.637Z,32.80
2018-08-09T12:05:28.629Z,33.10
2018-08-09T12:07:57.746Z,33.12
2018-08-09T12:10:26.745Z,32.49
2018-08-09T12:12:55.918Z,33.36
2018-08-09T12:15:25.069Z,33.30
2018-08-09T12:17:54.192Z,34.20
2018-08-09T12:20:23.203Z,35.27
2018-08-09T12:22:53.242Z,34.88
2018-08-09T12:25:22.536Z,33.15
2018-08-09T12:27:51.524Z,37.27
2018-08-09T12:30:20.588Z,53.19
2018-08-09T12:32:49.561Z,56.36
2018-08-09T12:35:18.662Z,60.29
2018-08-09T12:37:47.603Z,56.47
2018-08-09T12:40:16.643Z,51.11
2018-08-09T12:42:45.629Z,54.57
2018-08-09T12:45:14.718Z,62.63
2018-08-09T12:47:44.357Z,62.63
2018-08-09T12:50:14.465Z,81.28
2018-08-09T12:52:44.284Z,84.35
2018-08-09T12:55:14.423Z,83.33
2018-08-09T12:57:43.434Z,100.00
2018-08-09T13:00:13.942Z,91.09
2018-08-09T13:02:43.146Z,96.55
2018-08-09T13:05:13.204Z,76.97
2018-08-09T13:07:42.522Z,78.99
2018-08-09T13:10:13.025Z,76.31
2018-08-09T13:12:42.102Z,76.33
2018-08-09T13:15:13.439Z,73.94
2018-08-09T13:17:43.374Z,71.54
2018-08-09T13:20:18.343Z,71.32
2018-08-09T13:22:48.127Z,72.57
2018-08-09T13:25:17.134Z,73.50
2018-08-09T13:27:46.393Z,76.24
2018-08-09T13:30:15.469Z,76.93
2018-08-09T13:32:45.408Z,77.32
2018-08-09T13:35:14.529Z,77.23
2018-08-09T13:37:43.526Z,77.55
2018-08-09T13:40:12.561Z,79.23
2018-08-09T13:42:42.019Z,80.68
2018-08-09T13:45:15.317Z,83.26
2018-08-09T13:47:44.313Z,84.63
2018-08-09T13:50:13.824Z,83.51
2018-08-09T13:52:43.163Z,81.95
2018-08-09T13:55:13.491Z,82.95
2018-08-09T13:57:42.534Z,80.73
2018-08-09T14:00:13.022Z,78.26
2018-08-09T14:02:43.542Z,80.87
2018-08-09T14:05:12.592Z,78.68
2018-08-09T14:07:43.242Z,75.61
2018-08-09T14:10:12.905Z,79.68
2018-08-09T14:12:42.657Z,76.90
2018-08-09T14:15:13.165Z,75.40
2018-08-09T14:17:42.569Z,76.96
2018-08-09T14:20:14.241Z,74.53
2018-08-09T14:22:43.326Z,73.16
2018-08-09T14:25:12.734Z,75.65
2018-08-09T14:27:41.747Z,76.74
2018-08-09T14:30:13.007Z,75.86
2018-08-09T14:32:42.218Z,77.59
2018-08-09T14:35:13.673Z,76.10
2018-08-09T14:37:43.601Z,77.24
2018-08-09T14:40:13.059Z,78.13
2018-08-09T14:42:42.061Z,77.81
2018-08-09T14:45:13.182Z,75.47
2018-08-09T14:47:42.205Z,77.83
2018-08-09T14:50:11.274Z,75.87
2018-08-09T14:52:40.280Z,73.79
2018-08-09T14:55:10.847Z,77.86
2018-08-09T14:57:40.095Z,75.89
2018-08-09T15:00:12.024Z,77.43
2018-08-09T15:02:40.969Z,77.75
2018-08-09T15:05:10.049Z,77.06
2018-08-09T15:07:39.003Z,73.37
2018-08-09T15:10:08.190Z,73.28
2018-08-09T15:12:37.293Z,74.92
2018-08-09T15:15:08.416Z,73.02
2018-08-09T15:17:37.379Z,75.75
2018-08-09T15:20:08.214Z,75.26
2018-08-09T15:22:37.280Z,76.06
2018-08-09T15:25:07.154Z,77.61
2018-08-09T15:27:36.163Z,75.04
2018-08-09T15:30:07.066Z,74.53
2018-08-09T15:32:36.129Z,74.23
2018-08-09T15:35:05.214Z,71.68
2018-08-09T15:37:34.381Z,73.97
2018-08-09T15:40:03.543Z,72.12
2018-08-09T15:42:32.638Z,76.10
2018-08-09T15:45:01.678Z,74.56
2018-08-09T15:47:30.787Z,72.90
2018-08-09T15:49:59.670Z,67.16
2018-08-09T15:52:28.690Z,67.13
2018-08-09T15:54:57.706Z,66.75
2018-08-09T15:57:26.699Z,68.90
2018-08-09T15:59:55.806Z,67.85
2018-08-09T16:02:24.928Z,66.17
2018-08-09T16:04:54.046Z,67.55
2018-08-09T16:07:23.023Z,69.41
2018-08-09T16:09:52.043Z,68.12
2018-08-09T16:12:21.043Z,72.26
2018-08-09T16:14:50.067Z,67.86
2018-08-09T16:17:19.061Z,69.20
2018-08-09T16:19:48.064Z,68.00
2018-08-09T16:22:17.153Z,64.89
2018-08-09T16:24:46.205Z,66.54
2018-08-09T16:27:15.155Z,65.15
2018-08-09T16:29:44.182Z,65.95
2018-08-09T16:32:13.192Z,66.05
2018-08-09T16:34:42.238Z,67.23
2018-08-09T16:37:11.273Z,65.70
2018-08-09T16:39:40.228Z,66.71
2018-08-09T16:42:09.279Z,65.75
2018-08-09T16:44:38.285Z,67.61
2018-08-09T16:47:07.229Z,66.10
2018-08-09T16:49:36.159Z,65.60
2018-08-09T16:52:05.366Z,67.58
2018-08-09T16:54:34.338Z,65.95
2018-08-09T16:57:03.383Z,66.00
2018-08-09T16:59:32.302Z,66.70
2018-08-09T17:02:01.268Z,66.19
2018-08-09T17:04:30.175Z,63.72
2018-08-09T17:06:59.099Z,63.10
2018-08-09T17:09:28.100Z,62.14
2018-08-09T17:11:57.046Z,65.11
2018-08-09T17:14:26.038Z,65.14
2018-08-09T17:16:55.026Z,64.44
2018-08-09T17:19:24.010Z,64.30
2018-08-09T17:21:53.040Z,64.18
2018-08-09T17:24:21.960Z,65.42
2018-08-09T17:26:50.969Z,66.97
2018-08-09T17:29:19.996Z,66.08
2018-08-09T17:31:48.948Z,64.92
2018-08-09T17:34:17.865Z,63.97
2018-08-09T17:36:46.957Z,58.69
2018-08-09T17:39:15.921Z,57.07
2018-08-09T17:41:44.952Z,58.11
2018-08-09T17:44:13.925Z,58.54
2018-08-09T17:46:43.339Z,58.29
2018-08-09T17:49:12.232Z,54.71
2018-08-09T17:51:41.170Z,55.28
2018-08-09T17:54:10.145Z,53.51
2018-08-09T17:56:39.155Z,53.52
2018-08-09T17:59:08.111Z,51.44
2018-08-09T18:01:37.130Z,53.81
2018-08-09T18:04:06.120Z,52.95
2018-08-09T18:06:35.160Z,52.96
2018-08-09T18:09:04.423Z,54.01
2018-08-09T18:11:33.509Z,53.57
2018-08-09T18:14:02.544Z,54.01
2018-08-09T18:16:31.585Z,52.33
2018-08-09T18:19:00.594Z,52.84
2018-08-09T18:21:29.666Z,55.81
2018-08-09T18:23:58.739Z,54.35
2018-08-09T18:26:27.827Z,53.11
2018-08-09T18:28:56.818Z,54.02
2018-08-09T18:31:25.875Z,52.91
2018-08-09T18:33:54.972Z,52.93
2018-08-09T18:36:24.028Z,52.83
2018-08-09T18:38:52.994Z,53.05
2018-08-09T18:41:22.140Z,52.79
2018-08-09T18:43:51.318Z,53.12
2018-08-09T18:46:20.281Z,52.34
2018-08-09T18:48:49.302Z,52.23
2018-08-09T18:51:18.309Z,53.45
2018-08-09T18:53:47.250Z,57.48
2018-08-09T18:56:16.322Z,55.07
2018-08-09T18:58:45.284Z,53.45
2018-08-09T19:01:14.335Z,53.42
2018-08-09T19:03:43.343Z,53.72
2018-08-09T19:06:12.327Z,54.29
2018-08-09T19:08:41.414Z,53.75
2018-08-09T19:11:10.382Z,54.46
2018-08-09T19:13:39.414Z,55.24
2018-08-09T19:16:08.362Z,55.73
2018-08-09T19:18:37.344Z,54.71
2018-08-09T19:21:06.373Z,56.22
2018-08-09T19:23:35.354Z,55.29
2018-08-09T19:26:04.362Z,55.65
2018-08-09T19:28:33.400Z,55.48
2018-08-09T19:31:02.340Z,56.83
2018-08-09T19:33:31.350Z,57.19
2018-08-09T19:36:00.328Z,56.05
2018-08-09T19:38:29.413Z,55.62
2018-08-09T19:40:58.366Z,55.02
2018-08-09T19:43:27.343Z,54.79
2018-08-09T19:45:56.342Z,54.10
2018-08-09T19:48:25.382Z,53.73
2018-08-09T19:50:54.273Z,53.63
2018-08-09T19:53:23.309Z,53.62
2018-08-09T19:55:52.239Z,53.19
2018-08-09T19:58:21.229Z,53.25
2018-08-09T20:00:50.232Z,53.06
2018-08-09T20:03:19.320Z,53.84
2018-08-09T20:05:48.313Z,53.10
2018-08-09T20:08:17.369Z,52.88
2018-08-09T20:10:46.329Z,52.54
2018-08-09T20:13:15.395Z,53.44
2018-08-09T20:15:44.488Z,53.05
2018-08-09T20:18:13.498Z,54.10
2018-08-09T20:20:42.455Z,53.87
2018-08-09T20:23:11.426Z,53.95
2018-08-09T20:25:40.449Z,53.86
2018-08-09T20:28:09.685Z,54.58
2018-08-09T20:30:38.751Z,53.48
2018-08-09T20:33:07.893Z,54.15
2018-08-09T20:35:36.946Z,54.65
2018-08-09T20:38:05.972Z,55.41
2018-08-09T20:40:35.018Z,55.15
2018-08-09T20:43:04.005Z,54.85
2018-08-09T20:45:32.955Z,54.58
2018-08-09T20:48:01.985Z,55.22
2018-08-09T20:50:31.046Z,54.67
2018-08-09T20:53:00.069Z,55.17
2018-08-09T20:55:29.049Z,55.12
2018-08-09T20:57:58.465Z,54.39
2018-08-09T21:00:29.152Z,54.43
2018-08-09T21:02:59.206Z,54.51
2018-08-09T21:05:32.758Z,53.52
2018-08-09T21:08:01.846Z,52.28
2018-08-09T21:10:31.297Z,52.07
2018-08-09T21:13:00.313Z,50.60
2018-08-09T21:15:30.329Z,50.31
2018-08-09T21:17:59.405Z,50.51
2018-08-09T21:20:28.363Z,50.86
2018-08-09T21:22:57.443Z,51.50
2018-08-09T21:25:26.461Z,50.77
2018-08-09T21:27:55.485Z,51.50
2018-08-09T21:30:25.115Z,51.40
2018-08-09T21:32:54.263Z,51.97
2018-08-09T21:35:23.234Z,51.04
2018-08-09T21:37:52.178Z,51.22
2018-08-09T21:40:21.201Z,50.49
2018-08-09T21:42:50.205Z,50.79
2018-08-09T21:45:20.177Z,50.64
2018-08-09T21:47:49.227Z,50.39
2018-08-09T21:50:20.404Z,50.12
2018-08-09T21:52:49.625Z,50.68
2018-08-09T21:55:18.621Z,51.03
2018-08-09T21:57:48.340Z,51.10
2018-08-09T22:00:57.710Z,51.50
2018-08-09T22:03:28.926Z,50.92
2018-08-09T22:06:02.913Z,50.92
2018-08-09T22:08:36.956Z,51.03
2018-08-09T22:11:11.361Z,50.63
2018-08-09T22:13:45.374Z,51.09
2018-08-09T22:16:19.459Z,51.08
2018-08-09T22:18:53.487Z,51.33
2018-08-09T22:21:27.625Z,51.84
2018-08-09T22:23:56.777Z,51.37
2018-08-09T22:26:25.729Z,51.82
2018-08-09T22:28:54.727Z,52.34
2018-08-09T22:31:23.798Z,52.45
2018-08-09T22:33:52.923Z,52.85
2018-08-09T22:36:22.023Z,52.03
2018-08-09T22:38:51.131Z,52.55
2018-08-09T22:41:20.134Z,52.29
2018-08-09T22:43:49.194Z,52.22
2018-08-09T22:46:18.174Z,52.31
2018-08-09T22:48:47.213Z,52.87
2018-08-09T22:51:16.173Z,52.84
2018-08-09T22:53:45.166Z,52.76
2018-08-09T22:56:14.134Z,52.76
2018-08-09T22:58:43.162Z,53.16
2018-08-09T23:01:12.202Z,53.55
2018-08-09T23:03:41.327Z,53.49
2018-08-09T23:06:10.457Z,53.33
2018-08-09T23:08:39.462Z,53.00
2018-08-09T23:11:08.628Z,52.91
2018-08-09T23:13:37.641Z,53.11
2018-08-09T23:16:06.926Z,53.07
2018-08-09T23:18:35.933Z,52.62
2018-08-09T23:21:05.017Z,52.67
2018-08-09T23:23:34.069Z,52.05
2018-08-09T23:26:02.999Z,51.95
2018-08-09T23:28:32.129Z,51.24
2018-08-09T23:31:01.105Z,51.34
2018-08-09T23:33:30.025Z,51.68
2018-08-09T23:35:58.997Z,52.12
2018-08-09T23:38:27.952Z,51.86
2018-08-09T23:40:56.909Z,51.13
2018-08-09T23:43:25.878Z,51.28
2018-08-09T23:45:54.909Z,50.88
2018-08-09T23:48:23.842Z,51.67
2018-08-09T23:50:52.973Z,50.97
2018-08-09T23:53:21.935Z,51.61
2018-08-09T23:55:51.009Z,52.05
2018-08-09T23:58:19.921Z,51.82
